createdAt,value
2023-03-23T15:58:33.126Z,43.07
2023-03-23T16:01:06.130Z,43.17
2023-03-23T16:03:55.065Z,43.25
2023-03-23T16:06:27.642Z,43.34
2023-03-23T16:08:56.835Z,43.23
2023-03-23T16:11:28.573Z,43.19
2023-03-23T16:13:56.563Z,43.31
2023-03-23T16:16:29.498Z,43.55
2023-03-23T16:18:57.503Z,43.59
2023-03-23T16:21:25.698Z,43.90
2023-03-23T16:23:54.596Z,44.01
2023-03-23T16:26:22.508Z,44.16
2023-03-23T16:28:53.226Z,44.45
2023-03-23T16:31:23.914Z,44.74
2023-03-23T16:33:52.247Z,45.58
2023-03-23T16:36:20.619Z,46.45
2023-03-23T16:38:51.059Z,47.68
2023-03-23T16:41:20.093Z,48.93
2023-03-23T16:43:48.173Z,49.63
2023-03-23T16:46:16.284Z,49.93
2023-03-23T16:48:44.260Z,51.55
2023-03-23T16:51:12.582Z,51.24
2023-03-23T16:53:40.641Z,50.79
2023-03-23T16:56:08.813Z,51.33
2023-03-23T16:58:36.999Z,51.86
2023-03-23T17:01:06.108Z,51.86
2023-03-23T17:03:34.570Z,52.66
2023-03-23T17:06:02.871Z,53.51
2023-03-23T17:08:31.228Z,54.66
2023-03-23T17:10:59.291Z,55.46
2023-03-23T17:13:28.299Z,55.63
2023-03-23T17:15:57.486Z,56.00
2023-03-23T17:18:26.068Z,56.25
2023-03-23T17:20:54.525Z,55.85
2023-03-23T17:23:23.100Z,55.50
2023-03-23T17:25:51.870Z,55.78
2023-03-23T17:28:21.007Z,55.84
2023-03-23T17:30:51.250Z,56.17
2023-03-23T17:33:19.382Z,56.54
2023-03-23T17:35:51.890Z,57.25
2023-03-23T17:38:20.460Z,57.81
2023-03-23T17:40:48.637Z,58.24
2023-03-23T17:43:16.715Z,58.11
2023-03-23T17:45:47.048Z,58.18
2023-03-23T17:48:15.723Z,58.14
2023-03-23T17:50:48.300Z,58.23
2023-03-23T17:53:18.484Z,58.67
2023-03-23T17:55:46.745Z,59.08
2023-03-23T17:58:15.880Z,59.15
2023-03-23T18:00:44.059Z,59.13
2023-03-23T18:03:12.522Z,59.47
2023-03-23T18:05:41.357Z,59.22
2023-03-23T18:08:10.614Z,59.68
2023-03-23T18:10:40.833Z,60.22
2023-03-23T18:13:09.522Z,60.38
2023-03-23T18:15:37.799Z,60.70
2023-03-23T18:18:06.920Z,61.06
2023-03-23T18:20:37.708Z,61.02
2023-03-23T18:23:07.069Z,61.09
2023-03-23T18:25:35.204Z,60.79
2023-03-23T18:28:05.250Z,60.98
2023-03-23T18:30:35.645Z,61.15
2023-03-23T18:33:03.928Z,60.94
2023-03-23T18:35:32.210Z,61.38
2023-03-23T18:38:00.780Z,61.23
2023-03-23T18:40:28.668Z,61.53
2023-03-23T18:42:56.606Z,61.77
2023-03-23T18:45:27.042Z,61.83
2023-03-23T18:47:54.891Z,62.04
2023-03-23T18:50:26.163Z,61.97
2023-03-23T18:52:54.229Z,62.23
2023-03-23T18:55:24.140Z,62.36
2023-03-23T18:57:52.097Z,61.73
2023-03-23T19:00:21.825Z,62.43
2023-03-23T19:02:51.983Z,62.15
2023-03-23T19:05:20.924Z,62.06
2023-03-23T19:07:49.211Z,62.01
2023-03-23T19:10:17.425Z,62.31
2023-03-23T19:12:47.234Z,63.36
2023-03-23T19:15:16.798Z,63.51
2023-03-23T19:17:45.647Z,63.96
2023-03-23T19:20:17.070Z,63.94
2023-03-23T19:22:58.717Z,64.03
2023-03-23T19:25:27.117Z,64.23
2023-03-23T19:34:01.354Z,64.91
2023-03-23T19:36:30.671Z,64.69
2023-03-23T19:39:02.830Z,64.50
2023-03-23T19:41:35.650Z,64.70
2023-03-23T19:44:04.994Z,65.12
2023-03-23T19:46:33.090Z,65.66
2023-03-23T19:49:01.753Z,66.30
2023-03-23T19:51:30.651Z,66.05
2023-03-23T19:53:59.360Z,65.78
2023-03-23T19:56:29.489Z,66.06
2023-03-23T19:58:58.161Z,66.70
2023-03-23T20:01:26.412Z,67.04
2023-03-23T20:03:59.277Z,67.40
2023-03-23T20:06:29.194Z,67.03
2023-03-23T20:09:00.227Z,66.69
2023-03-23T20:11:29.638Z,66.98
2023-03-23T20:13:58.018Z,66.75
2023-03-23T20:16:26.618Z,66.63
2023-03-23T20:18:56.902Z,66.29
2023-03-23T20:21:28.483Z,66.17
2023-03-23T20:23:58.595Z,66.43
2023-03-23T20:26:30.831Z,66.37
2023-03-23T20:29:00.170Z,66.22
2023-03-23T20:31:35.084Z,66.08
2023-03-23T20:34:09.527Z,66.27
2023-03-23T20:36:40.619Z,66.42
2023-03-23T20:39:12.738Z,66.29
2023-03-23T20:41:41.528Z,65.82
2023-03-23T20:44:15.734Z,66.02
2023-03-23T20:46:45.876Z,66.25
2023-03-23T20:49:15.999Z,66.35
2023-03-23T20:51:44.997Z,66.37
2023-03-23T20:54:15.726Z,66.57
2023-03-23T20:56:45.229Z,66.43
2023-03-23T20:59:14.701Z,66.30
2023-03-23T21:01:43.017Z,66.39
2023-03-23T21:04:16.539Z,66.16
2023-03-23T21:06:46.110Z,66.62
2023-03-23T21:09:15.354Z,66.64
2023-03-23T21:11:43.769Z,66.66
2023-03-23T21:14:13.023Z,66.35
2023-03-23T21:16:46.259Z,66.61
2023-03-23T21:19:14.532Z,66.64
2023-03-23T21:21:56.672Z,66.84
2023-03-23T21:24:28.242Z,67.01
2023-03-23T21:26:59.445Z,67.14
2023-03-23T21:29:28.349Z,67.32
2023-03-23T21:34:28.646Z,67.41
2023-03-23T21:36:56.815Z,67.36
2023-03-23T21:39:26.375Z,67.22
2023-03-23T21:41:54.512Z,67.24
2023-03-23T21:44:23.095Z,67.14
2023-03-23T21:46:52.397Z,67.68
2023-03-23T21:49:20.862Z,68.08
2023-03-23T21:51:49.643Z,68.07
2023-03-23T21:54:17.915Z,68.01
2023-03-23T21:56:46.162Z,68.26
2023-03-23T21:59:14.606Z,68.57
2023-03-23T22:01:42.778Z,68.78
2023-03-23T22:04:11.530Z,69.23
2023-03-23T22:06:39.693Z,69.31
2023-03-23T22:09:12.133Z,68.99
2023-03-23T22:11:41.469Z,69.03
2023-03-23T22:14:09.753Z,68.90
2023-03-23T22:16:38.225Z,69.20
2023-03-23T22:19:07.116Z,69.52
2023-03-23T22:21:36.739Z,69.30
2023-03-23T22:24:06.116Z,69.15
2023-03-23T22:26:34.408Z,69.28
2023-03-23T22:29:04.014Z,69.67
2023-03-23T22:31:34.445Z,69.87
2023-03-23T22:34:03.378Z,69.99
2023-03-23T22:36:33.296Z,70.49
2023-03-23T22:39:02.269Z,70.32
2023-03-23T22:41:34.454Z,69.81
2023-03-23T22:44:03.298Z,69.95
2023-03-23T22:46:31.885Z,70.23
2023-03-23T22:49:00.056Z,70.21
2023-03-23T22:51:28.511Z,70.08
2023-03-23T22:53:57.169Z,70.08
2023-03-23T22:56:26.029Z,70.30
2023-03-23T22:58:54.790Z,70.13
2023-03-23T23:01:23.692Z,70.52
2023-03-23T23:03:53.045Z,70.38
2023-03-23T23:06:22.197Z,70.41
2023-03-23T23:08:51.805Z,70.65
2023-03-23T23:11:24.947Z,71.11
2023-03-23T23:13:53.053Z,71.11
2023-03-23T23:16:26.405Z,71.04
2023-03-23T23:18:55.993Z,70.77
2023-03-23T23:21:26.707Z,71.06
2023-03-23T23:23:55.344Z,71.72
2023-03-23T23:26:24.285Z,71.91
2023-03-23T23:28:53.286Z,71.77
2023-03-23T23:31:29.344Z,71.57
2023-03-23T23:33:59.863Z,71.86
2023-03-23T23:36:30.324Z,72.21
2023-03-23T23:39:05.950Z,72.62
2023-03-23T23:41:38.282Z,73.23
2023-03-23T23:44:06.376Z,73.60
2023-03-23T23:46:34.621Z,73.13
2023-03-23T23:49:02.923Z,72.95
2023-03-23T23:51:34.190Z,72.95
2023-03-23T23:54:02.418Z,72.76
2023-03-23T23:56:31.412Z,72.80
2023-03-23T23:58:59.687Z,72.38
